sensor_id;sensor_type;location;lat;lon;timestamp;P1;durP1;ratioP1;P2;durP2;ratioP2
7813;SDS011;3952;48.364;16.022;2023-06-26T00:01:10;6.57;;;5.73;;
7813;SDS011;3952;48.364;16.022;2023-06-26T00:03:37;6.77;;;6.20;;
7813;SDS011;3952;48.364;16.022;2023-06-26T00:06:04;6.00;;;5.70;;
7813;SDS011;3952;48.364;16.022;2023-06-26T00:08:32;5.60;;;5.20;;
7813;SDS011;3952;48.364;16.022;2023-06-26T00:11:00;5.80;;;5.40;;
7813;SDS011;3952;48.364;16.022;2023-06-26T00:13:27;8.47;;;6.40;;
7813;SDS011;3952;48.364;16.022;2023-06-26T00:15:54;6.20;;;5.80;;
7813;SDS011;3952;48.364;16.022;2023-06-26T00:18:21;6.00;;;5.70;;
7813;SDS011;3952;48.364;16.022;2023-06-26T00:20:49;6.00;;;5.40;;
7813;SDS011;3952;48.364;16.022;2023-06-26T00:23:16;6.10;;;5.63;;
7813;SDS011;3952;48.364;16.022;2023-06-26T00:25:46;6.10;;;5.70;;
7813;SDS011;3952;48.364;16.022;2023-06-26T00:28:13;6.10;;;5.70;;
7813;SDS011;3952;48.364;16.022;2023-06-26T00:30:40;6.23;;;5.83;;
7813;SDS011;3952;48.364;16.022;2023-06-26T00:33:07;6.80;;;6.20;;
7813;SDS011;3952;48.364;16.022;2023-06-26T00:35:34;6.77;;;6.17;;
7813;SDS011;3952;48.364;16.022;2023-06-26T00:38:01;7.40;;;5.90;;
7813;SDS011;3952;48.364;16.022;2023-06-26T00:40:29;7.07;;;6.07;;
7813;SDS011;3952;48.364;16.022;2023-06-26T00:42:57;5.70;;;5.30;;
7813;SDS011;3952;48.364;16.022;2023-06-26T00:45:24;6.20;;;5.63;;
7813;SDS011;3952;48.364;16.022;2023-06-26T00:47:52;5.80;;;5.40;;
7813;SDS011;3952;48.364;16.022;2023-06-26T00:50:20;6.27;;;5.77;;
7813;SDS011;3952;48.364;16.022;2023-06-26T00:52:47;7.50;;;6.10;;
7813;SDS011;3952;48.364;16.022;2023-06-26T00:55:14;6.53;;;6.03;;
7813;SDS011;3952;48.364;16.022;2023-06-26T00:57:41;7.13;;;6.57;;
7813;SDS011;3952;48.364;16.022;2023-06-26T01:00:13;7.37;;;6.93;;
7813;SDS011;3952;48.364;16.022;2023-06-26T01:02:41;7.60;;;7.00;;
7813;SDS011;3952;48.364;16.022;2023-06-26T01:05:08;7.27;;;6.83;;
7813;SDS011;3952;48.364;16.022;2023-06-26T01:07:38;7.80;;;7.20;;
7813;SDS011;3952;48.364;16.022;2023-06-26T01:10:06;8.17;;;7.47;;
7813;SDS011;3952;48.364;16.022;2023-06-26T01:12:34;8.50;;;7.80;;
7813;SDS011;3952;48.364;16.022;2023-06-26T01:15:04;7.10;;;6.70;;
7813;SDS011;3952;48.364;16.022;2023-06-26T01:17:33;8.23;;;7.43;;
7813;SDS011;3952;48.364;16.022;2023-06-26T01:20:04;7.10;;;6.67;;
7813;SDS011;3952;48.364;16.022;2023-06-26T01:22:36;7.77;;;7.17;;
7813;SDS011;3952;48.364;16.022;2023-06-26T01:25:12;7.47;;;6.97;;
7813;SDS011;3952;48.364;16.022;2023-06-26T01:27:48;6.90;;;6.50;;
7813;SDS011;3952;48.364;16.022;2023-06-26T01:30:17;7.40;;;7.00;;
7813;SDS011;3952;48.364;16.022;2023-06-26T01:32:45;7.20;;;6.53;;
7813;SDS011;3952;48.364;16.022;2023-06-26T01:35:13;7.30;;;6.70;;
7813;SDS011;3952;48.364;16.022;2023-06-26T01:37:42;6.43;;;6.03;;
7813;SDS011;3952;48.364;16.022;2023-06-26T01:40:09;6.83;;;6.23;;
7813;SDS011;3952;48.364;16.022;2023-06-26T01:42:37;6.83;;;6.23;;
7813;SDS011;3952;48.364;16.022;2023-06-26T01:45:07;7.30;;;6.50;;
7813;SDS011;3952;48.364;16.022;2023-06-26T01:47:43;7.00;;;6.40;;
7813;SDS011;3952;48.364;16.022;2023-06-26T01:50:14;8.50;;;7.17;;
7813;SDS011;3952;48.364;16.022;2023-06-26T01:52:46;7.10;;;6.70;;
7813;SDS011;3952;48.364;16.022;2023-06-26T01:55:21;7.07;;;6.57;;
7813;SDS011;3952;48.364;16.022;2023-06-26T01:57:55;7.53;;;6.87;;
7813;SDS011;3952;48.364;16.022;2023-06-26T02:00:26;7.67;;;7.17;;
7813;SDS011;3952;48.364;16.022;2023-06-26T02:02:54;6.80;;;6.33;;
7813;SDS011;3952;48.364;16.022;2023-06-26T02:05:21;7.33;;;6.90;;
7813;SDS011;3952;48.364;16.022;2023-06-26T02:07:49;8.13;;;7.43;;
7813;SDS011;3952;48.364;16.022;2023-06-26T02:10:16;8.03;;;7.07;;
7813;SDS011;3952;48.364;16.022;2023-06-26T02:12:44;8.37;;;7.77;;
7813;SDS011;3952;48.364;16.022;2023-06-26T02:15:11;7.70;;;7.10;;
7813;SDS011;3952;48.364;16.022;2023-06-26T02:17:39;8.03;;;7.43;;
7813;SDS011;3952;48.364;16.022;2023-06-26T02:20:07;6.73;;;6.33;;
7813;SDS011;3952;48.364;16.022;2023-06-26T02:22:35;6.70;;;6.30;;
7813;SDS011;3952;48.364;16.022;2023-06-26T02:25:03;5.63;;;5.33;;
7813;SDS011;3952;48.364;16.022;2023-06-26T02:27:30;8.33;;;5.83;;
7813;SDS011;3952;48.364;16.022;2023-06-26T02:29:58;6.20;;;5.60;;
7813;SDS011;3952;48.364;16.022;2023-06-26T02:32:25;10.27;;;6.53;;
7813;SDS011;3952;48.364;16.022;2023-06-26T02:34:53;10.70;;;6.50;;
7813;SDS011;3952;48.364;16.022;2023-06-26T02:37:21;6.47;;;5.87;;
7813;SDS011;3952;48.364;16.022;2023-06-26T02:39:48;6.40;;;5.77;;
7813;SDS011;3952;48.364;16.022;2023-06-26T02:42:15;6.63;;;6.03;;
7813;SDS011;3952;48.364;16.022;2023-06-26T02:44:42;9.50;;;6.20;;
7813;SDS011;3952;48.364;16.022;2023-06-26T02:47:10;6.17;;;5.77;;
7813;SDS011;3952;48.364;16.022;2023-06-26T02:49:37;6.60;;;6.00;;
7813;SDS011;3952;48.364;16.022;2023-06-26T02:52:06;6.17;;;5.77;;
7813;SDS011;3952;48.364;16.022;2023-06-26T02:54:33;7.07;;;6.30;;
7813;SDS011;3952;48.364;16.022;2023-06-26T02:57:00;6.47;;;6.07;;
7813;SDS011;3952;48.364;16.022;2023-06-26T02:59:28;7.73;;;6.57;;
7813;SDS011;3952;48.364;16.022;2023-06-26T03:01:55;9.23;;;6.90;;
7813;SDS011;3952;48.364;16.022;2023-06-26T03:04:22;7.40;;;6.63;;
7813;SDS011;3952;48.364;16.022;2023-06-26T03:06:49;7.70;;;7.00;;
7813;SDS011;3952;48.364;16.022;2023-06-26T03:09:18;7.70;;;7.20;;
7813;SDS011;3952;48.364;16.022;2023-06-26T03:11:45;8.37;;;7.87;;
7813;SDS011;3952;48.364;16.022;2023-06-26T03:14:12;11.67;;;7.20;;
7813;SDS011;3952;48.364;16.022;2023-06-26T03:16:40;8.30;;;7.70;;
7813;SDS011;3952;48.364;16.022;2023-06-26T03:19:07;7.20;;;6.80;;
7813;SDS011;3952;48.364;16.022;2023-06-26T03:21:34;7.57;;;6.97;;
7813;SDS011;3952;48.364;16.022;2023-06-26T03:24:01;7.60;;;7.10;;
7813;SDS011;3952;48.364;16.022;2023-06-26T03:26:30;7.63;;;7.13;;
7813;SDS011;3952;48.364;16.022;2023-06-26T03:28:57;6.97;;;6.57;;
7813;SDS011;3952;48.364;16.022;2023-06-26T03:31:24;7.87;;;7.17;;
7813;SDS011;3952;48.364;16.022;2023-06-26T03:33:52;7.77;;;7.27;;
7813;SDS011;3952;48.364;16.022;2023-06-26T03:36:19;7.87;;;7.27;;
7813;SDS011;3952;48.364;16.022;2023-06-26T03:38:46;7.03;;;6.63;;
7813;SDS011;3952;48.364;16.022;2023-06-26T03:41:13;8.13;;;7.40;;
7813;SDS011;3952;48.364;16.022;2023-06-26T03:43:42;7.13;;;6.47;;
7813;SDS011;3952;48.364;16.022;2023-06-26T03:46:09;9.03;;;6.53;;
7813;SDS011;3952;48.364;16.022;2023-06-26T03:48:36;7.23;;;6.67;;
7813;SDS011;3952;48.364;16.022;2023-06-26T03:51:04;7.80;;;6.63;;
7813;SDS011;3952;48.364;16.022;2023-06-26T03:53:32;6.37;;;5.90;;
7813;SDS011;3952;48.364;16.022;2023-06-26T03:55:59;7.63;;;6.43;;
7813;SDS011;3952;48.364;16.022;2023-06-26T03:58:26;8.27;;;5.80;;
7813;SDS011;3952;48.364;16.022;2023-06-26T04:00:54;6.83;;;6.23;;
7813;SDS011;3952;48.364;16.022;2023-06-26T04:03:23;6.60;;;6.10;;
7813;SDS011;3952;48.364;16.022;2023-06-26T04:05:50;7.27;;;5.60;;
7813;SDS011;3952;48.364;16.022;2023-06-26T04:08:17;6.43;;;6.03;;
7813;SDS011;3952;48.364;16.022;2023-06-26T04:10:46;6.10;;;5.80;;
7813;SDS011;3952;48.364;16.022;2023-06-26T04:13:13;6.43;;;5.90;;
7813;SDS011;3952;48.364;16.022;2023-06-26T04:15:40;7.10;;;6.70;;
7813;SDS011;3952;48.364;16.022;2023-06-26T04:18:09;6.90;;;6.40;;
7813;SDS011;3952;48.364;16.022;2023-06-26T04:20:38;7.17;;;6.67;;
7813;SDS011;3952;48.364;16.022;2023-06-26T04:23:10;8.97;;;6.63;;
7813;SDS011;3952;48.364;16.022;2023-06-26T04:25:37;8.37;;;7.77;;
7813;SDS011;3952;48.364;16.022;2023-06-26T04:28:04;9.20;;;8.50;;
7813;SDS011;3952;48.364;16.022;2023-06-26T04:30:31;9.23;;;8.50;;
7813;SDS011;3952;48.364;16.022;2023-06-26T04:32:59;8.87;;;8.37;;
7813;SDS011;3952;48.364;16.022;2023-06-26T04:35:28;8.67;;;8.17;;
7813;SDS011;3952;48.364;16.022;2023-06-26T04:37:55;9.33;;;8.53;;
7813;SDS011;3952;48.364;16.022;2023-06-26T04:40:22;9.83;;;9.13;;
7813;SDS011;3952;48.364;16.022;2023-06-26T04:42:49;11.20;;;10.07;;
7813;SDS011;3952;48.364;16.022;2023-06-26T04:45:17;10.20;;;9.60;;
7813;SDS011;3952;48.364;16.022;2023-06-26T04:47:44;10.53;;;9.73;;
7813;SDS011;3952;48.364;16.022;2023-06-26T04:50:11;10.67;;;9.90;;
7813;SDS011;3952;48.364;16.022;2023-06-26T04:52:40;11.63;;;10.63;;
7813;SDS011;3952;48.364;16.022;2023-06-26T04:55:07;10.80;;;9.93;;
7813;SDS011;3952;48.364;16.022;2023-06-26T04:57:34;11.40;;;10.33;;
7813;SDS011;3952;48.364;16.022;2023-06-26T05:00:01;10.17;;;9.47;;
7813;SDS011;3952;48.364;16.022;2023-06-26T05:02:32;11.97;;;11.03;;
7813;SDS011;3952;48.364;16.022;2023-06-26T05:05:00;11.20;;;10.33;;
7813;SDS011;3952;48.364;16.022;2023-06-26T05:07:27;11.83;;;10.87;;
7813;SDS011;3952;48.364;16.022;2023-06-26T05:09:56;12.87;;;11.80;;
7813;SDS011;3952;48.364;16.022;2023-06-26T05:12:23;11.70;;;10.77;;
7813;SDS011;3952;48.364;16.022;2023-06-26T05:14:50;11.63;;;10.90;;
7813;SDS011;3952;48.364;16.022;2023-06-26T05:17:17;12.93;;;11.57;;
7813;SDS011;3952;48.364;16.022;2023-06-26T05:19:44;10.90;;;10.20;;
7813;SDS011;3952;48.364;16.022;2023-06-26T05:22:11;11.53;;;10.43;;
7813;SDS011;3952;48.364;16.022;2023-06-26T05:24:40;16.17;;;11.07;;
7813;SDS011;3952;48.364;16.022;2023-06-26T05:27:11;10.70;;;9.90;;
7813;SDS011;3952;48.364;16.022;2023-06-26T05:29:46;11.37;;;10.43;;
7813;SDS011;3952;48.364;16.022;2023-06-26T05:32:15;11.73;;;10.60;;
7813;SDS011;3952;48.364;16.022;2023-06-26T05:34:44;11.77;;;10.83;;
7813;SDS011;3952;48.364;16.022;2023-06-26T05:37:14;9.77;;;8.97;;
7813;SDS011;3952;48.364;16.022;2023-06-26T05:39:47;10.03;;;9.10;;
7813;SDS011;3952;48.364;16.022;2023-06-26T05:42:17;10.77;;;8.63;;
7813;SDS011;3952;48.364;16.022;2023-06-26T05:44:44;9.60;;;8.80;;
7813;SDS011;3952;48.364;16.022;2023-06-26T05:47:12;9.93;;;9.23;;
7813;SDS011;3952;48.364;16.022;2023-06-26T05:49:39;8.97;;;8.23;;
7813;SDS011;3952;48.364;16.022;2023-06-26T05:52:06;9.13;;;8.27;;
7813;SDS011;3952;48.364;16.022;2023-06-26T05:54:35;9.37;;;8.60;;
7813;SDS011;3952;48.364;16.022;2023-06-26T05:57:03;9.83;;;8.97;;
7813;SDS011;3952;48.364;16.022;2023-06-26T05:59:33;8.80;;;8.10;;
7813;SDS011;3952;48.364;16.022;2023-06-26T06:02:06;8.20;;;7.60;;
7813;SDS011;3952;48.364;16.022;2023-06-26T06:04:33;8.30;;;7.70;;
7813;SDS011;3952;48.364;16.022;2023-06-26T06:07:02;7.90;;;7.30;;
7813;SDS011;3952;48.364;16.022;2023-06-26T06:09:30;8.30;;;7.70;;
7813;SDS011;3952;48.364;16.022;2023-06-26T06:11:58;8.80;;;8.10;;
7813;SDS011;3952;48.364;16.022;2023-06-26T06:14:26;9.27;;;8.47;;
7813;SDS011;3952;48.364;16.022;2023-06-26T06:16:55;11.30;;;8.07;;
7813;SDS011;3952;48.364;16.022;2023-06-26T06:19:22;9.30;;;8.50;;
7813;SDS011;3952;48.364;16.022;2023-06-26T06:21:49;8.77;;;8.10;;
7813;SDS011;3952;48.364;16.022;2023-06-26T06:24:16;9.17;;;8.27;;
7813;SDS011;3952;48.364;16.022;2023-06-26T06:26:44;9.17;;;8.37;;
7813;SDS011;3952;48.364;16.022;2023-06-26T06:29:11;8.70;;;7.90;;
7813;SDS011;3952;48.364;16.022;2023-06-26T06:31:38;10.30;;;8.67;;
7813;SDS011;3952;48.364;16.022;2023-06-26T06:34:07;8.77;;;8.07;;
7813;SDS011;3952;48.364;16.022;2023-06-26T06:36:34;7.53;;;6.93;;
7813;SDS011;3952;48.364;16.022;2023-06-26T06:39:01;8.70;;;7.90;;
7813;SDS011;3952;48.364;16.022;2023-06-26T06:41:28;8.47;;;7.67;;
7813;SDS011;3952;48.364;16.022;2023-06-26T06:43:56;7.03;;;6.50;;
7813;SDS011;3952;48.364;16.022;2023-06-26T06:46:23;8.03;;;7.33;;
7813;SDS011;3952;48.364;16.022;2023-06-26T06:48:52;7.87;;;7.17;;
7813;SDS011;3952;48.364;16.022;2023-06-26T06:51:20;10.07;;;7.80;;
7813;SDS011;3952;48.364;16.022;2023-06-26T06:53:48;7.60;;;7.10;;
7813;SDS011;3952;48.364;16.022;2023-06-26T06:56:15;7.57;;;7.00;;
7813;SDS011;3952;48.364;16.022;2023-06-26T06:58:42;7.47;;;6.83;;
7813;SDS011;3952;48.364;16.022;2023-06-26T07:01:11;7.70;;;7.17;;
7813;SDS011;3952;48.364;16.022;2023-06-26T07:03:38;8.13;;;7.43;;
7813;SDS011;3952;48.364;16.022;2023-06-26T07:06:05;7.87;;;7.17;;
7813;SDS011;3952;48.364;16.022;2023-06-26T07:08:34;7.93;;;7.30;;
7813;SDS011;3952;48.364;16.022;2023-06-26T07:11:01;7.63;;;7.07;;
7813;SDS011;3952;48.364;16.022;2023-06-26T07:13:29;7.53;;;7.13;;
7813;SDS011;3952;48.364;16.022;2023-06-26T07:15:56;6.60;;;6.18;;
7813;SDS011;3952;48.364;16.022;2023-06-26T07:18:23;6.72;;;6.40;;
7813;SDS011;3952;48.364;16.022;2023-06-26T07:20:50;7.35;;;6.72;;
7813;SDS011;3952;48.364;16.022;2023-06-26T07:23:17;6.60;;;6.10;;
7813;SDS011;3952;48.364;16.022;2023-06-26T07:25:46;7.30;;;6.90;;
7813;SDS011;3952;48.364;16.022;2023-06-26T07:28:13;8.23;;;7.47;;
7813;SDS011;3952;48.364;16.022;2023-06-26T07:30:40;7.72;;;7.22;;
7813;SDS011;3952;48.364;16.022;2023-06-26T07:33:07;7.13;;;6.72;;
7813;SDS011;3952;48.364;16.022;2023-06-26T07:35:35;8.55;;;7.28;;
7813;SDS011;3952;48.364;16.022;2023-06-26T07:38:02;7.97;;;7.38;;
7813;SDS011;3952;48.364;16.022;2023-06-26T07:40:29;6.97;;;6.47;;
7813;SDS011;3952;48.364;16.022;2023-06-26T07:42:58;7.05;;;6.45;;
7813;SDS011;3952;48.364;16.022;2023-06-26T07:45:25;7.45;;;6.85;;
7813;SDS011;3952;48.364;16.022;2023-06-26T07:47:52;6.80;;;6.40;;
7813;SDS011;3952;48.364;16.022;2023-06-26T07:50:19;7.13;;;5.95;;
7813;SDS011;3952;48.364;16.022;2023-06-26T07:52:49;6.18;;;5.78;;
7813;SDS011;3952;48.364;16.022;2023-06-26T07:55:18;6.15;;;5.85;;
7813;SDS011;3952;48.364;16.022;2023-06-26T07:57:45;6.20;;;5.80;;
7813;SDS011;3952;48.364;16.022;2023-06-26T08:00:14;6.05;;;5.60;;
7813;SDS011;3952;48.364;16.022;2023-06-26T08:02:41;6.13;;;5.50;;
7813;SDS011;3952;48.364;16.022;2023-06-26T08:05:09;6.72;;;6.20;;
7813;SDS011;3952;48.364;16.022;2023-06-26T08:07:36;6.50;;;6.10;;
7813;SDS011;3952;48.364;16.022;2023-06-26T08:10:03;5.97;;;5.60;;
7813;SDS011;3952;48.364;16.022;2023-06-26T08:12:31;5.53;;;5.22;;
7813;SDS011;3952;48.364;16.022;2023-06-26T08:14:59;6.25;;;5.75;;
7813;SDS011;3952;48.364;16.022;2023-06-26T08:17:29;6.15;;;5.75;;
7813;SDS011;3952;48.364;16.022;2023-06-26T08:19:56;5.22;;;4.93;;
7813;SDS011;3952;48.364;16.022;2023-06-26T08:22:23;4.97;;;4.68;;
7813;SDS011;3952;48.364;16.022;2023-06-26T08:24:51;5.53;;;5.20;;
7813;SDS011;3952;48.364;16.022;2023-06-26T08:27:18;5.45;;;5.15;;
7813;SDS011;3952;48.364;16.022;2023-06-26T08:29:45;5.07;;;4.78;;
7813;SDS011;3952;48.364;16.022;2023-06-26T08:32:12;6.18;;;5.82;;
7813;SDS011;3952;48.364;16.022;2023-06-26T08:34:41;5.72;;;5.28;;
7813;SDS011;3952;48.364;16.022;2023-06-26T08:37:08;5.43;;;5.13;;
7813;SDS011;3952;48.364;16.022;2023-06-26T08:39:36;5.55;;;5.22;;
7813;SDS011;3952;48.364;16.022;2023-06-26T08:42:03;5.63;;;5.32;;
7813;SDS011;3952;48.364;16.022;2023-06-26T08:44:31;5.00;;;4.70;;
7813;SDS011;3952;48.364;16.022;2023-06-26T08:46:59;5.13;;;4.82;;
7813;SDS011;3952;48.364;16.022;2023-06-26T08:49:29;4.22;;;4.00;;
7813;SDS011;3952;48.364;16.022;2023-06-26T08:52:06;4.80;;;4.40;;
7813;SDS011;3952;48.364;16.022;2023-06-26T08:54:39;3.65;;;3.45;;
7813;SDS011;3952;48.364;16.022;2023-06-26T08:57:10;3.95;;;3.72;;
7813;SDS011;3952;48.364;16.022;2023-06-26T08:59:38;4.20;;;4.00;;
7813;SDS011;3952;48.364;16.022;2023-06-26T09:02:05;4.28;;;3.90;;
7813;SDS011;3952;48.364;16.022;2023-06-26T09:04:34;4.15;;;3.95;;
7813;SDS011;3952;48.364;16.022;2023-06-26T09:07:02;4.18;;;3.97;;
7813;SDS011;3952;48.364;16.022;2023-06-26T09:09:30;4.25;;;4.05;;
7813;SDS011;3952;48.364;16.022;2023-06-26T09:11:58;5.93;;;4.30;;
7813;SDS011;3952;48.364;16.022;2023-06-26T09:14:25;4.57;;;4.30;;
7813;SDS011;3952;48.364;16.022;2023-06-26T09:16:52;4.18;;;3.97;;
7813;SDS011;3952;48.364;16.022;2023-06-26T09:19:19;5.03;;;4.72;;
7813;SDS011;3952;48.364;16.022;2023-06-26T09:21:48;4.70;;;4.45;;
7813;SDS011;3952;48.364;16.022;2023-06-26T09:24:16;4.20;;;3.90;;
7813;SDS011;3952;48.364;16.022;2023-06-26T09:26:45;4.38;;;4.07;;
7813;SDS011;3952;48.364;16.022;2023-06-26T09:29:13;4.70;;;4.40;;
7813;SDS011;3952;48.364;16.022;2023-06-26T09:31:41;4.30;;;4.10;;
7813;SDS011;3952;48.364;16.022;2023-06-26T09:34:10;4.43;;;4.13;;
7813;SDS011;3952;48.364;16.022;2023-06-26T09:36:37;4.38;;;4.18;;
7813;SDS011;3952;48.364;16.022;2023-06-26T09:39:07;4.20;;;4.00;;
7813;SDS011;3952;48.364;16.022;2023-06-26T09:41:37;4.55;;;4.15;;
7813;SDS011;3952;48.364;16.022;2023-06-26T09:44:06;4.38;;;4.07;;
7813;SDS011;3952;48.364;16.022;2023-06-26T09:46:34;4.65;;;4.35;;
7813;SDS011;3952;48.364;16.022;2023-06-26T09:49:03;4.88;;;4.68;;
7813;SDS011;3952;48.364;16.022;2023-06-26T09:51:32;5.95;;;5.45;;
7813;SDS011;3952;48.364;16.022;2023-06-26T09:54:00;4.70;;;4.50;;
7813;SDS011;3952;48.364;16.022;2023-06-26T09:56:27;5.03;;;4.72;;
7813;SDS011;3952;48.364;16.022;2023-06-26T09:58:56;4.60;;;4.28;;
7813;SDS011;3952;48.364;16.022;2023-06-26T10:01:26;5.70;;;5.30;;
7813;SDS011;3952;48.364;16.022;2023-06-26T10:03:53;4.65;;;4.38;;
7813;SDS011;3952;48.364;16.022;2023-06-26T10:06:24;4.70;;;4.30;;
7813;SDS011;3952;48.364;16.022;2023-06-26T10:08:54;4.13;;;3.92;;
7813;SDS011;3952;48.364;16.022;2023-06-26T10:11:22;5.07;;;4.78;;
7813;SDS011;3952;48.364;16.022;2023-06-26T10:13:52;4.43;;;4.15;;
7813;SDS011;3952;48.364;16.022;2023-06-26T10:16:22;5.70;;;4.85;;
7813;SDS011;3952;48.364;16.022;2023-06-26T10:18:56;5.72;;;4.53;;
7813;SDS011;3952;48.364;16.022;2023-06-26T10:21:27;4.78;;;4.38;;
7813;SDS011;3952;48.364;16.022;2023-06-26T10:23:57;4.72;;;4.32;;
7813;SDS011;3952;48.364;16.022;2023-06-26T10:26:25;4.88;;;4.57;;
7813;SDS011;3952;48.364;16.022;2023-06-26T10:28:54;4.20;;;3.90;;
7813;SDS011;3952;48.364;16.022;2023-06-26T10:31:24;5.07;;;4.75;;
7813;SDS011;3952;48.364;16.022;2023-06-26T10:33:55;4.28;;;4.07;;
7813;SDS011;3952;48.364;16.022;2023-06-26T10:36:27;4.88;;;4.57;;
7813;SDS011;3952;48.364;16.022;2023-06-26T10:38:57;4.10;;;3.90;;
7813;SDS011;3952;48.364;16.022;2023-06-26T10:41:25;4.10;;;3.90;;
7813;SDS011;3952;48.364;16.022;2023-06-26T10:44:05;4.82;;;4.63;;
7813;SDS011;3952;48.364;16.022;2023-06-26T10:46:45;4.78;;;4.47;;
7813;SDS011;3952;48.364;16.022;2023-06-26T10:49:19;5.65;;;4.63;;
7813;SDS011;3952;48.364;16.022;2023-06-26T10:51:47;4.60;;;4.40;;
7813;SDS011;3952;48.364;16.022;2023-06-26T10:54:16;4.85;;;4.60;;
7813;SDS011;3952;48.364;16.022;2023-06-26T10:56:46;4.90;;;4.60;;
7813;SDS011;3952;48.364;16.022;2023-06-26T10:59:15;5.30;;;4.55;;
7813;SDS011;3952;48.364;16.022;2023-06-26T11:01:44;4.93;;;4.63;;
7813;SDS011;3952;48.364;16.022;2023-06-26T11:04:13;5.35;;;5.05;;
7813;SDS011;3952;48.364;16.022;2023-06-26T11:06:44;4.25;;;4.05;;
7813;SDS011;3952;48.364;16.022;2023-06-26T11:09:14;4.70;;;4.30;;
7813;SDS011;3952;48.364;16.022;2023-06-26T11:11:57;4.10;;;3.92;;
7813;SDS011;3952;48.364;16.022;2023-06-26T11:14:27;4.72;;;4.53;;
7813;SDS011;3952;48.364;16.022;2023-06-26T11:16:57;4.63;;;4.35;;
7813;SDS011;3952;48.364;16.022;2023-06-26T11:19:25;4.57;;;4.20;;
7813;SDS011;3952;48.364;16.022;2023-06-26T11:22:05;4.72;;;4.43;;
7813;SDS011;3952;48.364;16.022;2023-06-26T11:24:32;4.70;;;4.40;;
7813;SDS011;3952;48.364;16.022;2023-06-26T11:27:00;4.65;;;4.35;;
7813;SDS011;3952;48.364;16.022;2023-06-26T11:29:29;4.32;;;4.13;;
7813;SDS011;3952;48.364;16.022;2023-06-26T11:31:59;4.40;;;4.10;;
7813;SDS011;3952;48.364;16.022;2023-06-26T11:34:29;4.95;;;4.65;;
7813;SDS011;3952;48.364;16.022;2023-06-26T11:36:57;4.70;;;4.50;;
7813;SDS011;3952;48.364;16.022;2023-06-26T11:39:28;4.78;;;4.47;;
7813;SDS011;3952;48.364;16.022;2023-06-26T11:41:55;5.45;;;5.00;;
7813;SDS011;3952;48.364;16.022;2023-06-26T11:44:22;4.72;;;4.32;;
7813;SDS011;3952;48.364;16.022;2023-06-26T11:46:53;5.00;;;4.70;;
7813;SDS011;3952;48.364;16.022;2023-06-26T11:49:22;4.60;;;4.30;;
7813;SDS011;3952;48.364;16.022;2023-06-26T11:51:51;4.90;;;4.55;;
7813;SDS011;3952;48.364;16.022;2023-06-26T11:54:24;4.95;;;4.55;;
7813;SDS011;3952;48.364;16.022;2023-06-26T11:56:57;4.55;;;4.35;;
7813;SDS011;3952;48.364;16.022;2023-06-26T11:59:32;4.90;;;4.60;;
7813;SDS011;3952;48.364;16.022;2023-06-26T12:02:00;4.63;;;4.32;;
7813;SDS011;3952;48.364;16.022;2023-06-26T12:04:32;5.13;;;4.85;;
7813;SDS011;3952;48.364;16.022;2023-06-26T12:07:00;4.78;;;4.43;;
7813;SDS011;3952;48.364;16.022;2023-06-26T12:09:29;5.40;;;5.03;;
7813;SDS011;3952;48.364;16.022;2023-06-26T12:12:00;4.90;;;4.68;;
7813;SDS011;3952;48.364;16.022;2023-06-26T12:14:28;4.40;;;4.20;;
7813;SDS011;3952;48.364;16.022;2023-06-26T12:17:03;4.80;;;4.53;;
7813;SDS011;3952;48.364;16.022;2023-06-26T12:19:33;5.38;;;4.80;;
7813;SDS011;3952;48.364;16.022;2023-06-26T12:22:05;4.88;;;4.68;;
7813;SDS011;3952;48.364;16.022;2023-06-26T12:24:35;4.25;;;4.00;;
7813;SDS011;3952;48.364;16.022;2023-06-26T12:27:07;4.95;;;4.57;;
7813;SDS011;3952;48.364;16.022;2023-06-26T12:29:35;4.45;;;4.20;;
7813;SDS011;3952;48.364;16.022;2023-06-26T12:32:04;4.50;;;4.28;;
7813;SDS011;3952;48.364;16.022;2023-06-26T12:34:35;4.60;;;4.40;;
7813;SDS011;3952;48.364;16.022;2023-06-26T12:37:04;4.55;;;4.22;;
7813;SDS011;3952;48.364;16.022;2023-06-26T12:39:46;4.80;;;4.40;;
7813;SDS011;3952;48.364;16.022;2023-06-26T12:42:17;4.65;;;4.45;;
7813;SDS011;3952;48.364;16.022;2023-06-26T12:44:46;5.28;;;4.90;;
7813;SDS011;3952;48.364;16.022;2023-06-26T12:47:14;5.28;;;4.97;;
7813;SDS011;3952;48.364;16.022;2023-06-26T12:49:42;4.50;;;4.30;;
7813;SDS011;3952;48.364;16.022;2023-06-26T12:52:11;5.03;;;4.72;;
7813;SDS011;3952;48.364;16.022;2023-06-26T12:54:39;5.18;;;4.97;;
7813;SDS011;3952;48.364;16.022;2023-06-26T12:57:07;4.47;;;4.28;;
7813;SDS011;3952;48.364;16.022;2023-06-26T12:59:37;4.95;;;4.75;;
7813;SDS011;3952;48.364;16.022;2023-06-26T13:02:05;5.07;;;4.78;;
7813;SDS011;3952;48.364;16.022;2023-06-26T13:04:33;5.55;;;5.25;;
7813;SDS011;3952;48.364;16.022;2023-06-26T13:07:01;5.55;;;5.15;;
7813;SDS011;3952;48.364;16.022;2023-06-26T13:09:31;5.28;;;4.97;;
7813;SDS011;3952;48.364;16.022;2023-06-26T13:12:00;5.00;;;4.70;;
7813;SDS011;3952;48.364;16.022;2023-06-26T13:14:28;5.05;;;4.85;;
7813;SDS011;3952;48.364;16.022;2023-06-26T13:16:57;5.22;;;4.93;;
7813;SDS011;3952;48.364;16.022;2023-06-26T13:19:24;5.57;;;5.18;;
7813;SDS011;3952;48.364;16.022;2023-06-26T13:21:51;5.40;;;5.00;;
7813;SDS011;3952;48.364;16.022;2023-06-26T13:24:19;5.60;;;5.30;;
7813;SDS011;3952;48.364;16.022;2023-06-26T13:26:46;5.47;;;5.07;;
7813;SDS011;3952;48.364;16.022;2023-06-26T13:29:13;6.45;;;5.93;;
7813;SDS011;3952;48.364;16.022;2023-06-26T13:31:41;6.05;;;5.63;;
7813;SDS011;3952;48.364;16.022;2023-06-26T13:34:13;6.15;;;5.65;;
7813;SDS011;3952;48.364;16.022;2023-06-26T13:36:47;5.85;;;5.55;;
7813;SDS011;3952;48.364;16.022;2023-06-26T13:39:14;6.03;;;5.72;;
7813;SDS011;3952;48.364;16.022;2023-06-26T13:41:42;6.20;;;5.90;;
7813;SDS011;3952;48.364;16.022;2023-06-26T13:44:09;5.93;;;5.63;;
7813;SDS011;3952;48.364;16.022;2023-06-26T13:46:36;5.90;;;5.57;;
7813;SDS011;3952;48.364;16.022;2023-06-26T13:49:03;5.82;;;5.43;;
7813;SDS011;3952;48.364;16.022;2023-06-26T13:51:32;6.00;;;5.70;;
7813;SDS011;3952;48.364;16.022;2023-06-26T13:53:59;6.22;;;5.82;;
7813;SDS011;3952;48.364;16.022;2023-06-26T13:56:26;6.45;;;5.95;;
7813;SDS011;3952;48.364;16.022;2023-06-26T13:58:55;6.38;;;6.07;;
7813;SDS011;3952;48.364;16.022;2023-06-26T14:01:23;5.82;;;5.53;;
7813;SDS011;3952;48.364;16.022;2023-06-26T14:03:50;5.65;;;5.35;;
7813;SDS011;3952;48.364;16.022;2023-06-26T14:06:18;5.47;;;5.18;;
7813;SDS011;3952;48.364;16.022;2023-06-26T14:08:46;5.95;;;5.65;;
7813;SDS011;3952;48.364;16.022;2023-06-26T14:11:13;5.70;;;5.40;;
7813;SDS011;3952;48.364;16.022;2023-06-26T14:13:41;6.28;;;5.78;;
7813;SDS011;3952;48.364;16.022;2023-06-26T14:16:08;6.32;;;5.82;;
7813;SDS011;3952;48.364;16.022;2023-06-26T14:18:36;5.93;;;5.63;;
7813;SDS011;3952;48.364;16.022;2023-06-26T14:21:04;5.63;;;5.32;;
7813;SDS011;3952;48.364;16.022;2023-06-26T14:23:31;6.00;;;5.70;;
7813;SDS011;3952;48.364;16.022;2023-06-26T14:25:59;5.63;;;5.22;;
7813;SDS011;3952;48.364;16.022;2023-06-26T14:28:27;5.65;;;5.28;;
7813;SDS011;3952;48.364;16.022;2023-06-26T14:30:54;6.25;;;5.72;;
7813;SDS011;3952;48.364;16.022;2023-06-26T14:33:21;6.63;;;6.07;;
7813;SDS011;3952;48.364;16.022;2023-06-26T14:35:48;6.22;;;5.60;;
7813;SDS011;3952;48.364;16.022;2023-06-26T14:38:16;6.60;;;5.85;;
7813;SDS011;3952;48.364;16.022;2023-06-26T14:40:43;6.10;;;5.63;;
7813;SDS011;3952;48.364;16.022;2023-06-26T14:43:12;6.07;;;5.63;;
7813;SDS011;3952;48.364;16.022;2023-06-26T14:45:39;6.60;;;6.20;;
7813;SDS011;3952;48.364;16.022;2023-06-26T14:48:06;5.80;;;5.50;;
7813;SDS011;3952;48.364;16.022;2023-06-26T14:50:33;5.95;;;5.50;;
7813;SDS011;3952;48.364;16.022;2023-06-26T14:53:00;5.72;;;5.32;;
7813;SDS011;3952;48.364;16.022;2023-06-26T14:55:28;6.00;;;5.70;;
7813;SDS011;3952;48.364;16.022;2023-06-26T14:57:55;6.50;;;6.10;;
7813;SDS011;3952;48.364;16.022;2023-06-26T15:00:23;6.25;;;5.85;;
7813;SDS011;3952;48.364;16.022;2023-06-26T15:02:52;5.88;;;5.55;;
7813;SDS011;3952;48.364;16.022;2023-06-26T15:05:19;5.68;;;5.28;;
7813;SDS011;3952;48.364;16.022;2023-06-26T15:07:47;6.03;;;5.72;;